createdAt,value
2018-04-01T00:00:29.313Z,28.75
2018-04-01T00:02:56.967Z,29.33
2018-04-01T00:05:24.613Z,30.33
2018-04-01T00:07:52.403Z,33.30
2018-04-01T00:10:20.190Z,33.97
2018-04-01T00:12:47.821Z,33.33
2018-04-01T00:15:15.498Z,34.38
2018-04-01T00:17:43.148Z,34.08
2018-04-01T00:20:10.784Z,32.53
2018-04-01T00:22:38.577Z,33.28
2018-04-01T00:25:06.259Z,34.55
2018-04-01T00:27:34.027Z,31.85
2018-04-01T00:30:01.729Z,32.92
2018-04-01T00:32:29.385Z,36.08
2018-04-01T00:34:57.195Z,32.95
2018-04-01T00:37:24.839Z,32.85
2018-04-01T00:39:52.454Z,34.45
2018-04-01T00:42:21.099Z,35.05
2018-04-01T00:44:48.865Z,33.47
2018-04-01T00:47:16.519Z,35.88
2018-04-01T00:49:44.192Z,35.70
2018-04-01T00:52:11.815Z,35.38
2018-04-01T00:54:39.491Z,34.72
2018-04-01T00:57:07.125Z,35.13
2018-04-01T00:59:34.771Z,33.05
2018-04-01T01:02:03.315Z,35.08
2018-04-01T01:04:30.972Z,34.80
2018-04-01T01:06:58.846Z,34.15
2018-04-01T01:09:26.522Z,33.00
2018-04-01T01:11:54.230Z,34.35
2018-04-01T01:14:21.852Z,33.28
2018-04-01T01:16:49.488Z,32.83
2018-04-01T01:19:17.181Z,31.92
2018-04-01T01:21:44.794Z,34.58
2018-04-01T01:24:13.288Z,32.17
2018-04-01T01:26:41.074Z,33.15
2018-04-01T01:29:08.917Z,31.85
2018-04-01T01:31:36.567Z,34.33
2018-04-01T01:34:04.242Z,35.05
2018-04-01T01:36:31.865Z,36.13
2018-04-01T01:38:59.671Z,35.15
2018-04-01T01:41:27.312Z,34.58
2018-04-01T01:43:55.504Z,36.47
2018-04-01T01:46:23.199Z,34.85
2018-04-01T01:48:50.920Z,35.70
2018-04-01T01:51:18.791Z,35.50
2018-04-01T01:53:46.660Z,33.60
2018-04-01T01:56:14.530Z,32.63
2018-04-01T01:58:42.296Z,34.70
2018-04-01T02:01:09.941Z,35.30
2018-04-01T02:03:38.046Z,37.88
2018-04-01T02:06:05.667Z,37.50
2018-04-01T02:08:33.359Z,38.75
2018-04-01T02:11:01.073Z,40.75
2018-04-01T02:13:28.979Z,39.80
2018-04-01T02:15:56.739Z,39.88
2018-04-01T02:18:24.360Z,38.65
2018-04-01T02:20:52.163Z,38.28
2018-04-01T02:23:19.787Z,39.70
2018-04-01T02:25:47.692Z,39.47
2018-04-01T02:28:15.372Z,41.65
2018-04-01T02:30:43.024Z,40.85
2018-04-01T02:33:11.036Z,45.50
2018-04-01T02:35:39.563Z,46.15
2018-04-01T02:38:07.334Z,46.50
2018-04-01T02:40:35.197Z,45.70
2018-04-01T02:43:02.892Z,46.40
2018-04-01T02:45:30.728Z,46.08
2018-04-01T02:47:58.353Z,45.65
2018-04-01T02:50:26.046Z,45.97
2018-04-01T02:52:53.723Z,49.83
2018-04-01T02:55:21.579Z,51.88
2018-04-01T02:57:50.262Z,50.03
2018-04-01T03:00:18.042Z,50.83
2018-04-01T03:02:46.195Z,51.28
2018-04-01T03:05:13.825Z,51.03
2018-04-01T03:07:41.481Z,49.80
2018-04-01T03:10:09.401Z,50.42
2018-04-01T03:12:37.253Z,48.87
2018-04-01T03:15:05.122Z,51.05
2018-04-01T03:17:32.904Z,47.30
2018-04-01T03:20:00.594Z,40.95
2018-04-01T03:22:29.127Z,45.50
2018-04-01T03:24:57.622Z,41.95
2018-04-01T03:27:25.318Z,41.88
2018-04-01T03:29:53.762Z,41.78
2018-04-01T03:32:21.619Z,44.00
2018-04-01T03:34:49.791Z,43.58
2018-04-01T03:37:17.418Z,44.13
2018-04-01T03:39:45.215Z,46.90
2018-04-01T03:42:13.081Z,44.50
2018-04-01T03:44:40.946Z,44.35
2018-04-01T03:47:08.715Z,41.92
2018-04-01T03:49:36.472Z,43.22
2018-04-01T03:52:04.240Z,41.85
2018-04-01T03:54:32.024Z,42.55
2018-04-01T03:56:59.692Z,41.72
2018-04-01T03:59:27.536Z,41.35
2018-04-01T04:01:55.223Z,42.45
2018-04-01T04:04:22.883Z,41.35
2018-04-01T04:06:52.260Z,41.55
2018-04-01T04:09:21.168Z,36.78
2018-04-01T04:11:49.013Z,37.28
2018-04-01T04:14:16.775Z,35.45
2018-04-01T04:16:44.746Z,35.10
2018-04-01T04:19:12.375Z,34.22
2018-04-01T04:21:40.173Z,31.27
2018-04-01T04:24:07.956Z,33.20
2018-04-01T04:26:37.522Z,31.35
2018-04-01T04:29:05.172Z,31.90
2018-04-01T04:31:32.791Z,31.12
2018-04-01T04:34:01.449Z,29.00
2018-04-01T04:36:31.005Z,32.58
2018-04-01T04:38:58.727Z,29.33
2018-04-01T04:41:26.527Z,32.03
2018-04-01T04:43:54.934Z,33.33
2018-04-01T04:46:22.826Z,30.95
2018-04-01T04:48:50.590Z,31.60
2018-04-01T04:51:18.278Z,30.98
2018-04-01T04:53:45.904Z,32.00
2018-04-01T04:56:13.541Z,33.15
2018-04-01T04:58:41.195Z,31.95
2018-04-01T05:01:08.823Z,31.70
2018-04-01T05:03:36.580Z,31.80
2018-04-01T05:06:04.429Z,30.55
2018-04-01T05:08:32.564Z,30.85
2018-04-01T05:11:00.191Z,29.15
2018-04-01T05:13:28.028Z,29.02
2018-04-01T05:15:55.890Z,28.83
2018-04-01T05:18:23.575Z,29.15
2018-04-01T05:20:52.850Z,29.48
2018-04-01T05:23:21.457Z,28.65
2018-04-01T05:25:49.093Z,29.05
2018-04-01T05:28:16.822Z,28.85
2018-04-01T05:30:45.226Z,29.15
2018-04-01T05:33:12.869Z,29.08
2018-04-01T05:35:40.769Z,29.65
2018-04-01T05:38:08.440Z,29.87
2018-04-01T05:40:36.102Z,32.03
2018-04-01T05:43:03.955Z,33.47
2018-04-01T05:45:32.394Z,31.73
2018-04-01T05:48:00.016Z,29.23
2018-04-01T05:50:27.692Z,30.90
2018-04-01T05:52:56.244Z,29.33
2018-04-01T05:55:24.003Z,30.77
2018-04-01T05:57:51.775Z,28.75
2018-04-01T06:00:19.399Z,24.98
2018-04-01T06:02:47.197Z,19.75
2018-04-01T06:05:14.832Z,18.92
2018-04-01T06:07:42.944Z,18.33
2018-04-01T06:10:10.794Z,18.12
2018-04-01T06:12:38.446Z,12.90
2018-04-01T06:15:06.626Z,15.52
2018-04-01T06:17:34.310Z,16.42
2018-04-01T06:20:01.936Z,15.23
2018-04-01T06:22:29.713Z,14.75
2018-04-01T06:24:57.385Z,17.45
2018-04-01T06:27:25.035Z,17.42
2018-04-01T06:29:52.802Z,17.55
2018-04-01T06:32:20.667Z,17.20
2018-04-01T06:34:48.310Z,16.25
2018-04-01T06:37:16.095Z,17.60
2018-04-01T06:39:43.897Z,18.10
2018-04-01T06:42:12.283Z,18.42
2018-04-01T06:44:40.667Z,16.75
2018-04-01T06:47:08.887Z,17.15
2018-04-01T06:49:36.511Z,15.57
2018-04-01T06:52:04.161Z,16.05
2018-04-01T06:54:32.075Z,15.63
2018-04-01T06:56:59.865Z,16.85
2018-04-01T06:59:27.494Z,17.30
2018-04-01T07:01:55.370Z,15.70
2018-04-01T07:04:23.004Z,13.23
2018-04-01T07:06:50.656Z,16.75
2018-04-01T07:09:18.458Z,17.40
2018-04-01T07:11:46.155Z,16.73
2018-04-01T07:14:13.780Z,14.27
2018-04-01T07:16:41.541Z,14.20
2018-04-01T07:19:09.407Z,14.52
2018-04-01T07:21:37.065Z,14.73
2018-04-01T07:24:04.831Z,14.02
2018-04-01T07:26:32.903Z,14.63
2018-04-01T07:29:00.599Z,15.60
2018-04-01T07:31:28.323Z,15.93
2018-04-01T07:33:56.196Z,15.23
2018-04-01T07:36:23.814Z,16.27
2018-04-01T07:38:51.458Z,16.27
2018-04-01T07:41:20.100Z,17.05
2018-04-01T07:43:48.187Z,16.95
2018-04-01T07:46:15.934Z,15.68
2018-04-01T07:48:43.592Z,16.48
2018-04-01T07:51:11.247Z,17.83
2018-04-01T07:53:39.021Z,17.15
2018-04-01T07:56:06.893Z,20.35
2018-04-01T07:58:34.754Z,20.02
2018-04-01T08:01:03.253Z,21.95
2018-04-01T08:03:32.538Z,21.98
2018-04-01T08:06:00.168Z,21.15
2018-04-01T08:08:27.963Z,23.12
2018-04-01T08:10:55.592Z,22.60
2018-04-01T08:13:23.372Z,20.35
2018-04-01T08:15:50.988Z,20.70
2018-04-01T08:18:19.376Z,19.08
2018-04-01T08:20:47.821Z,18.87
2018-04-01T08:23:15.482Z,20.70
2018-04-01T08:25:43.177Z,18.87
2018-04-01T08:28:11.623Z,20.35
2018-04-01T08:30:39.351Z,24.70
2018-04-01T08:33:07.029Z,25.73
2018-04-01T08:35:34.744Z,28.02
2018-04-01T08:38:03.187Z,27.37
2018-04-01T08:40:30.853Z,27.08
2018-04-01T08:42:58.541Z,27.45
2018-04-01T08:45:26.961Z,25.65
2018-04-01T08:47:54.615Z,26.42
2018-04-01T08:50:22.297Z,25.65
2018-04-01T08:52:49.933Z,24.63
2018-04-01T08:55:17.639Z,25.35
2018-04-01T08:57:45.300Z,23.65
2018-04-01T09:00:12.955Z,21.50
2018-04-01T09:02:40.651Z,22.58
2018-04-01T09:05:09.049Z,17.87
2018-04-01T09:07:36.683Z,16.98
2018-04-01T09:10:04.425Z,16.27
2018-04-01T09:12:32.089Z,17.50
2018-04-01T09:14:59.941Z,17.08
2018-04-01T09:17:27.607Z,19.17
2018-04-01T09:19:55.277Z,19.60
2018-04-01T09:22:27.879Z,18.87
2018-04-01T09:24:56.422Z,17.60
2018-04-01T09:27:24.109Z,20.62
2018-04-01T09:29:51.863Z,21.45
2018-04-01T09:32:19.614Z,21.12
2018-04-01T09:34:47.478Z,21.27
2018-04-01T09:37:15.102Z,22.65
2018-04-01T09:39:42.774Z,23.58
2018-04-01T09:42:10.416Z,21.77
2018-04-01T09:44:38.807Z,23.98
2018-04-01T09:47:06.604Z,24.33
2018-04-01T09:49:34.368Z,22.52
2018-04-01T09:52:02.147Z,16.40
2018-04-01T09:54:30.012Z,16.98
2018-04-01T09:56:57.688Z,14.43
2018-04-01T09:59:25.519Z,12.90
2018-04-01T10:01:54.080Z,13.43
2018-04-01T10:04:22.487Z,14.13
2018-04-01T10:06:50.758Z,15.23
2018-04-01T10:09:19.929Z,15.27
2018-04-01T10:11:48.344Z,16.20
2018-04-01T10:14:16.922Z,13.52
2018-04-01T10:16:46.220Z,14.68
2018-04-01T10:19:15.442Z,14.00
2018-04-01T10:21:43.828Z,15.05
2018-04-01T10:24:12.794Z,15.25
2018-04-01T10:26:41.254Z,15.63
2018-04-01T10:29:09.642Z,15.98
2018-04-01T10:31:38.869Z,14.80
2018-04-01T10:34:07.703Z,15.25
2018-04-01T10:36:36.218Z,13.20
2018-04-01T10:39:05.427Z,13.52
2018-04-01T10:41:34.003Z,11.55
2018-04-01T10:44:02.386Z,12.73
2018-04-01T10:46:31.152Z,12.60
2018-04-01T10:49:00.359Z,10.80
2018-04-01T10:51:29.502Z,10.90
2018-04-01T10:53:57.430Z,11.63
2018-04-01T10:56:25.359Z,11.18
2018-04-01T10:58:53.049Z,11.68
2018-04-01T11:01:20.827Z,12.68
2018-04-01T11:03:51.249Z,13.00
2018-04-01T11:06:18.874Z,15.00
2018-04-01T11:08:46.496Z,14.32
2018-04-01T11:11:19.961Z,15.50
2018-04-01T11:13:47.729Z,17.40
2018-04-01T11:16:15.516Z,18.42
2018-04-01T11:18:43.153Z,21.60
2018-04-01T11:21:11.144Z,21.50
2018-04-01T11:23:38.885Z,22.20
2018-04-01T11:26:06.546Z,22.00
2018-04-01T11:28:34.612Z,25.17
2018-04-01T11:31:02.294Z,23.42
2018-04-01T11:33:30.070Z,20.60
2018-04-01T11:35:58.492Z,19.80
2018-04-01T11:38:26.312Z,19.95
2018-04-01T11:40:55.596Z,19.08
2018-04-01T11:43:23.456Z,18.40
2018-04-01T11:45:52.143Z,16.67
2018-04-01T11:48:20.008Z,17.20
2018-04-01T11:50:48.494Z,16.00
2018-04-01T11:53:16.380Z,16.27
2018-04-01T11:55:44.057Z,16.42
2018-04-01T11:58:12.560Z,16.75
2018-04-01T12:00:40.187Z,16.37
2018-04-01T12:03:07.936Z,16.85
2018-04-01T12:05:35.615Z,16.58
2018-04-01T12:08:04.275Z,17.95
2018-04-01T12:10:32.170Z,16.20
2018-04-01T12:13:00.677Z,16.10
2018-04-01T12:15:28.390Z,15.50
2018-04-01T12:17:56.328Z,15.30
2018-04-01T12:20:24.142Z,15.27
2018-04-01T12:22:52.661Z,14.05
2018-04-01T12:25:20.791Z,14.02
2018-04-01T12:27:49.450Z,14.27
2018-04-01T12:30:17.330Z,13.27
2018-04-01T12:32:46.011Z,12.93
2018-04-01T12:35:14.450Z,13.38
2018-04-01T12:37:42.267Z,11.45
2018-04-01T12:40:10.007Z,12.88
2018-04-01T12:42:37.811Z,11.95
2018-04-01T12:45:06.461Z,12.25
2018-04-01T12:47:34.108Z,12.55
2018-04-01T12:50:01.762Z,11.45
2018-04-01T12:52:29.654Z,12.02
2018-04-01T12:54:57.414Z,12.50
2018-04-01T12:57:25.290Z,12.20
2018-04-01T12:59:53.045Z,12.37
2018-04-01T13:02:20.911Z,12.88
2018-04-01T13:04:48.596Z,12.80
2018-04-01T13:07:16.230Z,12.43
2018-04-01T13:09:46.927Z,12.27
2018-04-01T13:12:19.645Z,14.25
2018-04-01T13:14:47.290Z,12.98
2018-04-01T13:17:14.956Z,14.05
2018-04-01T13:19:42.737Z,15.80
2018-04-01T13:22:10.613Z,16.27
2018-04-01T13:24:39.760Z,16.33
2018-04-01T13:27:07.581Z,18.17
2018-04-01T13:29:36.741Z,19.77
2018-04-01T13:32:04.541Z,16.60
2018-04-01T13:34:32.397Z,18.40
2018-04-01T13:37:00.361Z,19.65
2018-04-01T13:39:34.675Z,16.83
2018-04-01T13:42:02.997Z,17.30
2018-04-01T13:44:31.041Z,15.40
2018-04-01T13:46:59.720Z,13.20
2018-04-01T13:49:27.696Z,15.18
2018-04-01T13:51:56.371Z,15.20
2018-04-01T13:54:24.246Z,14.65
2018-04-01T13:56:52.911Z,15.15
2018-04-01T13:59:20.610Z,14.80
2018-04-01T14:01:48.306Z,14.40
2018-04-01T14:04:16.000Z,12.77
2018-04-01T14:06:43.711Z,12.70
2018-04-01T14:09:12.113Z,11.77
2018-04-01T14:11:39.841Z,13.30
2018-04-01T14:14:08.265Z,12.60
2018-04-01T14:16:35.950Z,12.10
2018-04-01T14:19:03.584Z,12.60
2018-04-01T14:21:31.275Z,12.07
2018-04-01T14:23:58.940Z,11.65
2018-04-01T14:26:26.695Z,12.82
2018-04-01T14:28:54.456Z,11.13
2018-04-01T14:31:22.149Z,12.60
2018-04-01T14:33:49.831Z,11.57
2018-04-01T14:36:18.284Z,13.17
2018-04-01T14:38:45.912Z,12.10
2018-04-01T14:41:13.606Z,13.00
2018-04-01T14:43:41.302Z,12.80
2018-04-01T14:46:09.023Z,12.20
2018-04-01T14:48:36.687Z,11.43
2018-04-01T14:51:04.359Z,12.13
2018-04-01T14:53:32.028Z,12.63
2018-04-01T14:56:00.519Z,13.15
2018-04-01T14:58:28.240Z,11.43
2018-04-01T15:00:57.759Z,12.10
2018-04-01T15:03:25.612Z,11.85
2018-04-01T15:05:53.369Z,12.37
2018-04-01T15:08:21.207Z,11.20
2018-04-01T15:10:49.004Z,12.68
2018-04-01T15:13:16.872Z,11.88
2018-04-01T15:15:44.747Z,12.85
2018-04-01T15:18:12.607Z,11.83
2018-04-01T15:20:40.240Z,12.00
2018-04-01T15:23:08.014Z,12.48
2018-04-01T15:25:35.647Z,13.13
2018-04-01T15:28:03.372Z,12.52
2018-04-01T15:30:31.217Z,12.98
2018-04-01T15:32:58.877Z,12.03
2018-04-01T15:35:26.969Z,12.50
2018-04-01T15:37:54.296Z,13.25
2018-04-01T15:40:21.974Z,12.07
2018-04-01T15:42:49.631Z,12.33
2018-04-01T15:45:17.648Z,16.97
2018-04-01T15:47:46.092Z,27.57
2018-04-01T15:50:13.780Z,27.30
2018-04-01T15:52:42.252Z,21.12
2018-04-01T15:55:10.651Z,18.73
2018-04-01T15:57:38.283Z,13.65
2018-04-01T16:00:05.980Z,12.77
2018-04-01T16:02:33.649Z,13.65
2018-04-01T16:05:01.340Z,15.95
2018-04-01T16:07:29.041Z,25.92
2018-04-01T16:09:57.529Z,22.00
2018-04-01T16:12:25.150Z,15.25
2018-04-01T16:14:52.828Z,22.27
2018-04-01T16:17:20.473Z,15.50
2018-04-01T16:19:48.168Z,14.30
2018-04-01T16:22:16.569Z,17.17
2018-04-01T16:24:44.310Z,36.05
2018-04-01T16:27:12.712Z,24.95
2018-04-01T16:29:40.476Z,16.25
2018-04-01T16:32:08.160Z,14.15
2018-04-01T16:34:35.884Z,15.27
2018-04-01T16:37:04.302Z,15.43
2018-04-01T16:39:32.089Z,14.70
2018-04-01T16:42:05.504Z,15.63
2018-04-01T16:44:34.066Z,16.80
2018-04-01T16:47:01.927Z,16.02
2018-04-01T16:49:29.579Z,15.95
2018-04-01T16:51:57.234Z,18.73
2018-04-01T16:54:24.891Z,23.23
2018-04-01T16:56:52.600Z,18.45
2018-04-01T16:59:21.009Z,17.62
2018-04-01T17:01:48.667Z,17.80
2018-04-01T17:04:16.299Z,18.42
2018-04-01T17:06:44.149Z,17.00
2018-04-01T17:09:11.913Z,17.12
2018-04-01T17:11:39.644Z,15.93
2018-04-01T17:14:07.436Z,15.95
2018-04-01T17:16:35.094Z,17.60
2018-04-01T17:19:02.864Z,19.98
2018-04-01T17:21:30.511Z,20.27
2018-04-01T17:23:58.388Z,17.58
2018-04-01T17:26:26.283Z,18.87
2018-04-01T17:28:54.122Z,17.05
2018-04-01T17:31:21.885Z,17.20
2018-04-01T17:33:49.568Z,17.12
2018-04-01T17:36:20.484Z,18.83
2018-04-01T17:38:48.162Z,19.77
2018-04-01T17:41:15.868Z,20.60
2018-04-01T17:43:43.591Z,20.83
2018-04-01T17:46:11.230Z,22.73
2018-04-01T17:48:38.946Z,21.75
2018-04-01T17:51:07.336Z,23.60
2018-04-01T17:53:34.964Z,26.23
2018-04-01T17:56:02.636Z,25.00
2018-04-01T17:58:31.083Z,28.58
2018-04-01T18:00:58.783Z,28.10
2018-04-01T18:03:27.219Z,28.50
2018-04-01T18:05:54.888Z,36.80
2018-04-01T18:08:22.557Z,35.45
2018-04-01T18:10:50.265Z,33.45
2018-04-01T18:13:17.924Z,32.92
2018-04-01T18:15:45.602Z,33.92
2018-04-01T18:18:13.283Z,34.92
2018-04-01T18:20:40.919Z,37.95
2018-04-01T18:23:08.616Z,51.25
2018-04-01T18:25:36.243Z,37.72
2018-04-01T18:28:03.909Z,38.78
2018-04-01T18:30:31.595Z,33.30
2018-04-01T18:32:59.290Z,31.23
2018-04-01T18:35:26.967Z,29.05
2018-04-01T18:37:55.416Z,36.08
2018-04-01T18:40:23.095Z,37.40
2018-04-01T18:42:51.528Z,36.30
2018-04-01T18:45:19.185Z,31.02
2018-04-01T18:47:46.917Z,29.23
2018-04-01T18:50:14.600Z,29.30
2018-04-01T18:52:42.315Z,30.90
2018-04-01T18:55:09.986Z,29.23
2018-04-01T18:57:37.648Z,25.95
2018-04-01T19:00:05.340Z,25.27
2018-04-01T19:02:32.986Z,25.40
2018-04-01T19:05:01.395Z,24.87
2018-04-01T19:07:29.066Z,25.73
2018-04-01T19:09:56.810Z,27.87
2018-04-01T19:12:24.443Z,29.65
2018-04-01T19:14:52.887Z,28.55
2018-04-01T19:17:21.082Z,31.58
2018-04-01T19:19:49.459Z,32.20
2018-04-01T19:22:18.022Z,34.95
2018-04-01T19:24:46.483Z,32.50
2018-04-01T19:27:15.640Z,33.90
2018-04-01T19:29:44.047Z,36.75
2018-04-01T19:32:12.447Z,35.28
2018-04-01T19:34:41.878Z,34.65
2018-04-01T19:37:10.443Z,37.67
2018-04-01T19:39:38.869Z,35.15
2018-04-01T19:42:07.282Z,36.40
2018-04-01T19:44:35.712Z,36.95
2018-04-01T19:47:04.091Z,37.85
2018-04-01T19:49:32.743Z,37.95
2018-04-01T19:52:01.239Z,38.85
2018-04-01T19:54:29.807Z,37.33
2018-04-01T19:56:59.105Z,35.25
2018-04-01T19:59:28.818Z,36.70
2018-04-01T20:01:58.124Z,39.05
2018-04-01T20:04:26.616Z,41.60
2018-04-01T20:06:55.018Z,37.20
2018-04-01T20:09:23.556Z,37.20
2018-04-01T20:11:52.776Z,39.10
2018-04-01T20:14:21.167Z,34.25
2018-04-01T20:16:51.250Z,30.55
2018-04-01T20:19:20.467Z,30.08
2018-04-01T20:21:48.868Z,29.48
2018-04-01T20:24:18.232Z,29.20
2018-04-01T20:26:47.450Z,27.10
2018-04-01T20:29:15.855Z,28.77
2018-04-01T20:31:44.307Z,30.05
2018-04-01T20:34:12.772Z,32.03
2018-04-01T20:36:41.352Z,36.35
2018-04-01T20:39:09.929Z,33.33
2018-04-01T20:41:39.229Z,34.60
2018-04-01T20:44:07.815Z,34.50
2018-04-01T20:46:37.026Z,36.75
2018-04-01T20:49:05.492Z,36.78
2018-04-01T20:51:34.702Z,41.37
2018-04-01T20:54:03.174Z,39.55
2018-04-01T20:56:32.471Z,39.47
2018-04-01T20:59:01.648Z,38.78
2018-04-01T21:01:30.176Z,40.65
2018-04-01T21:03:58.736Z,39.85
2018-04-01T21:06:27.890Z,40.28
2018-04-01T21:08:56.824Z,41.00
2018-04-01T21:11:25.978Z,39.67
2018-04-01T21:13:54.591Z,39.88
2018-04-01T21:16:23.945Z,39.60
2018-04-01T21:18:52.489Z,38.10
2018-04-01T21:21:20.923Z,42.17
2018-04-01T21:23:49.443Z,42.10
2018-04-01T21:26:18.602Z,40.47
2018-04-01T21:28:46.997Z,40.53
2018-04-01T21:31:16.229Z,44.08
2018-04-01T21:33:44.715Z,44.15
2018-04-01T21:36:13.090Z,44.10
2018-04-01T21:38:41.582Z,45.72
2018-04-01T21:41:10.141Z,43.75
2018-04-01T21:43:38.561Z,43.78
2018-04-01T21:46:06.949Z,44.03
2018-04-01T21:48:35.587Z,43.92
2018-04-01T21:51:04.168Z,44.50
2018-04-01T21:53:32.585Z,44.45
2018-04-01T21:56:01.234Z,43.87
2018-04-01T21:58:29.710Z,44.97
2018-04-01T22:00:58.940Z,44.72
2018-04-01T22:03:27.492Z,43.97
2018-04-01T22:05:56.663Z,43.63
2018-04-01T22:08:25.044Z,43.70
2018-04-01T22:10:53.452Z,44.15
2018-04-01T22:13:22.601Z,43.08
2018-04-01T22:15:51.013Z,44.33
2018-04-01T22:18:19.472Z,43.05
2018-04-01T22:20:47.914Z,43.55
2018-04-01T22:23:16.485Z,41.20
2018-04-01T22:25:45.050Z,43.00
2018-04-01T22:28:13.547Z,43.35
2018-04-01T22:30:41.944Z,54.47
2018-04-01T22:33:10.369Z,56.67
2018-04-01T22:35:38.974Z,52.78
2018-04-01T22:38:08.173Z,52.75
2018-04-01T22:40:37.060Z,49.55
2018-04-01T22:43:05.640Z,48.97
2018-04-01T22:45:34.938Z,46.90
2018-04-01T22:48:04.339Z,46.08
2018-04-01T22:50:33.651Z,44.13
2018-04-01T22:53:02.228Z,43.20
2018-04-01T22:55:30.646Z,44.20
2018-04-01T22:57:59.290Z,44.28
2018-04-01T23:00:27.692Z,45.22
2018-04-01T23:02:56.353Z,46.88
2018-04-01T23:05:24.755Z,48.10
2018-04-01T23:07:53.123Z,44.92
2018-04-01T23:10:21.751Z,47.72
2018-04-01T23:12:50.197Z,47.38
2018-04-01T23:15:18.760Z,46.40
2018-04-01T23:17:47.150Z,43.78
2018-04-01T23:20:15.715Z,43.40
2018-04-01T23:22:44.489Z,45.72
2018-04-01T23:25:13.723Z,45.45
2018-04-01T23:27:42.292Z,44.05
2018-04-01T23:30:10.975Z,43.80
2018-04-01T23:32:39.387Z,42.40
2018-04-01T23:35:07.935Z,42.50
2018-04-01T23:37:36.424Z,44.40
2018-04-01T23:40:05.001Z,43.80
2018-04-01T23:42:33.421Z,43.72
2018-04-01T23:45:02.059Z,46.33
2018-04-01T23:47:31.276Z,45.12
2018-04-01T23:49:59.688Z,43.63
2018-04-01T23:52:28.118Z,43.03
2018-04-01T23:54:57.415Z,44.38
2018-04-01T23:57:26.717Z,43.45
2018-04-01T23:59:55.319Z,43.10
